Brewster, Kansas
Current Conditions -  °F | °C
As of 7:53 PM on Monday 20 Oct 2014 (Local Time) from KGLD Reporting Station
Clear Clear  
Wind Chill: 58°   Ceiling: Unl
Heat Index: 58°   Visibility: 10mi
Dew Point: 39°   Wind: 10mph
Humidity: 49%   Direction: 170°S
Pressure: 30.11"   Gusts: NA
Location:  39.37°N, 101.38°W
Report Text: KGLD 210053Z AUTO 17009KT 10SM CLR 14/04 A3011 RMK AO2 SLP187 T01440039
Loading
Personal Weather Stations






























Interactive Weather Map
Tropical Storm Tracking
New forecast layout! Learn more

10-Day Weather Forecast

Advertisements
Track Severe Weather on mobile